Austin-Bergstrom International Airport

Airport
ICAO code: 
KAUS
Summary
ICAO Region: 
NAM
Territory: 
Location: 
Austin, Texas,
Coordinates: 
Aerial View: 
30° 12' 9.479" N, 97° 40' 5.326" W
Airport LOS: 
Parallel Runway Operation
Airport WX: 
Cumulonimbus
Metar
Observation
KAUS 040653Z 20008KT 10SM OVC008 19/18 A3003 RMK AO2 SLP163 T01890178
Station
Austin, Austin-Bergstrom International Airport
Date/Time
2021-12-04 06:53:00
Wind direction
200°
Wind speed
08 kts
Lowest cloud amount
overcast
Temperature
18.9°C
Dew point
17.8°C
Humidity
93%
Weather condition
n/a

Description

Austin-Bergstrom International Airport is a public use airport located 8 km southeast of the central business district of Austin, in Travis County, Texas.

Climatology

Humid “subtropical” climate (Köppen climate classification Cfa) - characterized by hot, humid summers and cool winters. Significant amounts of precipitation occur in all seasons in most areas. Winter rainfall (and sometimes snowfall) is associated with large storms that the westerlies steer from west to east. Most summer rainfall occurs during thunderstorms and occasional tropical storms (hurricanes).

Runways

Designator Length Width Surface Rops
17L/35R 2743 46 CON Yes/Yes
17R/35L 3733 46 CON Yes/Yes
Airport map: 
Aerial View: 

SKYbrary Partners:

Safety knowledge contributed by: